Victoria, IL (61485)

5:26 AM CDT on May 05, 2015 (GMT -0500)
East Burch St | | Change Station
CLOSE
Current Station
Personal Weather Station
Location: Wataga, IL
Elevation: 840 ft
Nearby Weather Stations

Elev 840 ft 41.03 °N, 90.28 °W | Updated 2 seconds ago

Rain
Rain
60.0 °F
Feels Like 60.0 °F
N
0.0
Wind Variable Wind from South
Gusts 3.0 mph

Today
High -- | Low -- °F
--% Chance of Precip.
Yesterday
High -- | Low -- °F
Precip. -- in
5:53 AM 8:01 PM
Full, 98% visible
Pressure 30.09 in
Visibility 7.0 miles
Clouds Scattered Clouds 7000 ft
Scattered Clouds 9000 ft
Mostly Cloudy 12000 ft
Dew Point 59 °F
Humidity 97%
Rainfall 0.68 in
Snow Depth Not available.
UV 0 out of 12
Pollen 6.70 out of 12
Air Quality Not available.
Flu Activity Local Activity
METAR KGBG 051015Z AUTO 10007KT 7SM -RA SCT070 SCT090 BKN120 17/16 A3009 RMK AO2 P0001 T01660163

More Conditions Fewer Conditions

Pressure 30.09 in
Visibility 7.0 miles
Clouds Scattered Clouds 7000 ft
Scattered Clouds 9000 ft
Mostly Cloudy 12000 ft
Dew Point 59 °F
Humidity 97%
Rainfall 0.68 in
Snow Depth Not available.
UV 0 out of 12
Pollen 6.70 out of 12
Air Quality Not available.
Flu Activity Local Activity
METAR KGBG 051015Z AUTO 10007KT 7SM -RA SCT070 SCT090 BKN120 17/16 A3009 RMK AO2 P0001 T01660163

More Conditions Fewer Conditions

Nepal has a long way to go to dig out and rebuild from a devastating earthquake. We have teamed up with several charities and organizations to make contributing to the relief effort as easy as possible.
How you can help: Portlight Strategies | Red Cross

10-Day Weather Forecast

Almanac

Astronomy

May. 05, 2015 Rise Set
Actual Time
Civil Twilight
Nautical Twilight
Astronomical Twilight
Moon
Length of Visible Light
Length of Day
Tomorrow will be .
, % of the Moon is Illuminated

Today's Extremes

State Highs State Lows

Community

WunderPhotos

Upload Photos

1,818,828 photos uploaded!

WunderBlogs® & News

Nearby

Air Quality

  Air Quality AQ Index Pollutant
Not available.

Snow Depth

Station Depth Elevation

Earthquake Activity

City Distance Mag. Time & Date
Minimum magnitude displayed is 2.5.

Coastal Water Temperatures

Place Temperature

Stations

Nearby Weather Stations

Station Location Temp. Windchill Dew Point Humidity Wind Precip. Elev Updated Type